sensor_id;sensor_type;location;lat;lon;timestamp;temperature;humidity
17740;DHT22;8990;33.226;-97.150;2023-04-03T00:01:40;22.70;99.90
17740;DHT22;8990;33.226;-97.150;2023-04-03T00:04:09;22.90;99.90
17740;DHT22;8990;33.226;-97.150;2023-04-03T00:06:38;23.00;99.90
17740;DHT22;8990;33.226;-97.150;2023-04-03T00:09:07;23.00;99.90
17740;DHT22;8990;33.226;-97.150;2023-04-03T00:11:35;22.70;99.90
17740;DHT22;8990;33.226;-97.150;2023-04-03T00:14:05;22.50;99.90
17740;DHT22;8990;33.226;-97.150;2023-04-03T00:16:34;22.30;99.90
17740;DHT22;8990;33.226;-97.150;2023-04-03T00:19:05;22.10;99.90
17740;DHT22;8990;33.226;-97.150;2023-04-03T00:21:34;22.10;99.90
17740;DHT22;8990;33.226;-97.150;2023-04-03T00:24:04;22.00;99.90
17740;DHT22;8990;33.226;-97.150;2023-04-03T00:26:33;21.90;99.90
17740;DHT22;8990;33.226;-97.150;2023-04-03T00:29:02;21.70;99.90
17740;DHT22;8990;33.226;-97.150;2023-04-03T00:31:31;21.60;99.90
17740;DHT22;8990;33.226;-97.150;2023-04-03T00:34:00;21.50;99.90
17740;DHT22;8990;33.226;-97.150;2023-04-03T00:36:31;21.40;99.90
17740;DHT22;8990;33.226;-97.150;2023-04-03T00:39:00;21.30;99.90
17740;DHT22;8990;33.226;-97.150;2023-04-03T00:41:30;21.10;99.90
17740;DHT22;8990;33.226;-97.150;2023-04-03T00:43:59;21.10;99.90
17740;DHT22;8990;33.226;-97.150;2023-04-03T00:46:28;21.20;99.90
17740;DHT22;8990;33.226;-97.150;2023-04-03T00:48:57;21.00;99.90
17740;DHT22;8990;33.226;-97.150;2023-04-03T00:51:26;20.90;99.90
17740;DHT22;8990;33.226;-97.150;2023-04-03T00:54:00;20.90;99.90
17740;DHT22;8990;33.226;-97.150;2023-04-03T00:56:30;20.80;99.90
17740;DHT22;8990;33.226;-97.150;2023-04-03T00:59:02;20.80;99.90
17740;DHT22;8990;33.226;-97.150;2023-04-03T01:01:32;20.70;99.90
17740;DHT22;8990;33.226;-97.150;2023-04-03T01:04:02;20.50;99.90
17740;DHT22;8990;33.226;-97.150;2023-04-03T01:06:35;20.20;99.90
17740;DHT22;8990;33.226;-97.150;2023-04-03T01:09:10;20.20;99.90
17740;DHT22;8990;33.226;-97.150;2023-04-03T01:11:40;20.10;99.90
17740;DHT22;8990;33.226;-97.150;2023-04-03T01:14:09;20.10;99.90
17740;DHT22;8990;33.226;-97.150;2023-04-03T01:16:38;20.00;99.90
17740;DHT22;8990;33.226;-97.150;2023-04-03T01:19:13;20.00;99.90
17740;DHT22;8990;33.226;-97.150;2023-04-03T01:21:56;20.00;99.90
17740;DHT22;8990;33.226;-97.150;2023-04-03T01:24:36;20.00;99.90
17740;DHT22;8990;33.226;-97.150;2023-04-03T01:27:10;20.00;99.90
17740;DHT22;8990;33.226;-97.150;2023-04-03T01:29:40;19.90;99.90
17740;DHT22;8990;33.226;-97.150;2023-04-03T01:32:12;19.90;99.90
17740;DHT22;8990;33.226;-97.150;2023-04-03T01:34:42;19.80;99.90
17740;DHT22;8990;33.226;-97.150;2023-04-03T01:37:12;19.70;99.90
17740;DHT22;8990;33.226;-97.150;2023-04-03T01:39:41;19.60;99.90
17740;DHT22;8990;33.226;-97.150;2023-04-03T01:42:10;19.60;99.90
17740;DHT22;8990;33.226;-97.150;2023-04-03T01:44:43;19.60;99.90
17740;DHT22;8990;33.226;-97.150;2023-04-03T01:47:14;19.60;99.90
17740;DHT22;8990;33.226;-97.150;2023-04-03T01:49:44;19.60;99.90
17740;DHT22;8990;33.226;-97.150;2023-04-03T01:52:13;19.50;99.90
17740;DHT22;8990;33.226;-97.150;2023-04-03T01:54:42;19.50;99.90
17740;DHT22;8990;33.226;-97.150;2023-04-03T01:57:11;19.50;99.90
17740;DHT22;8990;33.226;-97.150;2023-04-03T01:59:41;19.50;99.90
17740;DHT22;8990;33.226;-97.150;2023-04-03T02:02:10;19.50;99.90
17740;DHT22;8990;33.226;-97.150;2023-04-03T02:04:43;19.50;99.90
17740;DHT22;8990;33.226;-97.150;2023-04-03T02:07:12;19.50;99.90
17740;DHT22;8990;33.226;-97.150;2023-04-03T02:09:41;19.40;99.90
17740;DHT22;8990;33.226;-97.150;2023-04-03T02:12:10;19.40;99.90
17740;DHT22;8990;33.226;-97.150;2023-04-03T02:14:39;19.40;99.90
17740;DHT22;8990;33.226;-97.150;2023-04-03T02:17:12;19.30;99.90
17740;DHT22;8990;33.226;-97.150;2023-04-03T02:19:43;19.30;99.90
17740;DHT22;8990;33.226;-97.150;2023-04-03T02:22:12;19.20;99.90
17740;DHT22;8990;33.226;-97.150;2023-04-03T02:24:41;19.10;99.90
17740;DHT22;8990;33.226;-97.150;2023-04-03T02:27:10;19.00;99.90
17740;DHT22;8990;33.226;-97.150;2023-04-03T02:29:39;19.00;99.90
17740;DHT22;8990;33.226;-97.150;2023-04-03T02:32:08;19.00;99.90
17740;DHT22;8990;33.226;-97.150;2023-04-03T02:34:38;18.90;99.90
17740;DHT22;8990;33.226;-97.150;2023-04-03T02:37:10;18.90;99.90
17740;DHT22;8990;33.226;-97.150;2023-04-03T02:39:40;18.80;99.90
17740;DHT22;8990;33.226;-97.150;2023-04-03T02:42:09;18.80;99.90
17740;DHT22;8990;33.226;-97.150;2023-04-03T02:44:38;18.70;99.90
17740;DHT22;8990;33.226;-97.150;2023-04-03T02:47:09;18.60;99.90
17740;DHT22;8990;33.226;-97.150;2023-04-03T02:49:39;18.40;99.90
17740;DHT22;8990;33.226;-97.150;2023-04-03T02:52:08;18.40;99.90
17740;DHT22;8990;33.226;-97.150;2023-04-03T02:54:38;18.40;99.90
17740;DHT22;8990;33.226;-97.150;2023-04-03T02:57:11;18.20;99.90
17740;DHT22;8990;33.226;-97.150;2023-04-03T02:59:40;18.20;99.90
17740;DHT22;8990;33.226;-97.150;2023-04-03T03:02:11;18.20;99.90
17740;DHT22;8990;33.226;-97.150;2023-04-03T03:04:40;18.20;99.90
17740;DHT22;8990;33.226;-97.150;2023-04-03T03:07:09;18.10;99.90
17740;DHT22;8990;33.226;-97.150;2023-04-03T03:09:40;18.10;99.90
17740;DHT22;8990;33.226;-97.150;2023-04-03T03:12:09;18.10;99.90
17740;DHT22;8990;33.226;-97.150;2023-04-03T03:14:38;18.00;99.90
17740;DHT22;8990;33.226;-97.150;2023-04-03T03:17:09;18.00;99.90
17740;DHT22;8990;33.226;-97.150;2023-04-03T03:19:40;18.00;99.90
17740;DHT22;8990;33.226;-97.150;2023-04-03T03:22:10;18.00;99.90
17740;DHT22;8990;33.226;-97.150;2023-04-03T03:24:40;18.00;99.90
17740;DHT22;8990;33.226;-97.150;2023-04-03T03:27:10;17.90;99.90
17740;DHT22;8990;33.226;-97.150;2023-04-03T03:29:39;17.90;99.90
17740;DHT22;8990;33.226;-97.150;2023-04-03T03:32:08;18.00;99.90
17740;DHT22;8990;33.226;-97.150;2023-04-03T03:34:37;17.90;99.90
17740;DHT22;8990;33.226;-97.150;2023-04-03T03:37:06;17.90;99.90
17740;DHT22;8990;33.226;-97.150;2023-04-03T03:39:35;17.90;99.90
17740;DHT22;8990;33.226;-97.150;2023-04-03T03:42:06;17.80;99.90
17740;DHT22;8990;33.226;-97.150;2023-04-03T03:44:35;17.80;99.90
17740;DHT22;8990;33.226;-97.150;2023-04-03T03:47:05;17.70;99.90
17740;DHT22;8990;33.226;-97.150;2023-04-03T03:49:36;17.60;99.90
17740;DHT22;8990;33.226;-97.150;2023-04-03T03:52:05;17.70;99.90
17740;DHT22;8990;33.226;-97.150;2023-04-03T03:54:37;17.70;99.90
17740;DHT22;8990;33.226;-97.150;2023-04-03T03:57:08;17.70;99.90
17740;DHT22;8990;33.226;-97.150;2023-04-03T03:59:37;17.60;99.90
17740;DHT22;8990;33.226;-97.150;2023-04-03T04:02:08;17.60;99.90
17740;DHT22;8990;33.226;-97.150;2023-04-03T04:04:37;17.60;99.90
17740;DHT22;8990;33.226;-97.150;2023-04-03T04:07:06;17.50;99.90
17740;DHT22;8990;33.226;-97.150;2023-04-03T04:09:41;17.50;99.90
17740;DHT22;8990;33.226;-97.150;2023-04-03T04:12:13;17.40;99.90
17740;DHT22;8990;33.226;-97.150;2023-04-03T04:14:43;17.30;99.90
17740;DHT22;8990;33.226;-97.150;2023-04-03T04:17:14;17.40;99.90
17740;DHT22;8990;33.226;-97.150;2023-04-03T04:19:43;17.40;99.90
17740;DHT22;8990;33.226;-97.150;2023-04-03T04:22:12;17.40;99.90
17740;DHT22;8990;33.226;-97.150;2023-04-03T04:24:41;17.40;99.90
17740;DHT22;8990;33.226;-97.150;2023-04-03T04:27:12;17.40;99.90
17740;DHT22;8990;33.226;-97.150;2023-04-03T04:29:43;17.30;99.90
17740;DHT22;8990;33.226;-97.150;2023-04-03T04:32:12;17.40;99.90
17740;DHT22;8990;33.226;-97.150;2023-04-03T04:34:41;17.30;99.90
17740;DHT22;8990;33.226;-97.150;2023-04-03T04:37:10;17.40;99.90
17740;DHT22;8990;33.226;-97.150;2023-04-03T04:39:39;17.30;99.90
17740;DHT22;8990;33.226;-97.150;2023-04-03T04:42:11;17.20;99.90
17740;DHT22;8990;33.226;-97.150;2023-04-03T04:44:41;17.30;99.90
17740;DHT22;8990;33.226;-97.150;2023-04-03T04:47:10;17.20;99.90
17740;DHT22;8990;33.226;-97.150;2023-04-03T04:49:40;17.30;99.90
17740;DHT22;8990;33.226;-97.150;2023-04-03T04:52:10;17.30;99.90
17740;DHT22;8990;33.226;-97.150;2023-04-03T04:54:40;17.30;99.90
17740;DHT22;8990;33.226;-97.150;2023-04-03T04:57:12;17.30;99.90
17740;DHT22;8990;33.226;-97.150;2023-04-03T04:59:41;17.30;99.90
17740;DHT22;8990;33.226;-97.150;2023-04-03T05:02:10;17.30;99.90
17740;DHT22;8990;33.226;-97.150;2023-04-03T05:04:41;17.20;99.90
17740;DHT22;8990;33.226;-97.150;2023-04-03T05:07:16;17.20;99.90
17740;DHT22;8990;33.226;-97.150;2023-04-03T05:09:45;17.00;99.90
17740;DHT22;8990;33.226;-97.150;2023-04-03T05:12:18;17.20;99.90
17740;DHT22;8990;33.226;-97.150;2023-04-03T05:14:53;17.20;99.90
17740;DHT22;8990;33.226;-97.150;2023-04-03T05:17:22;17.20;99.90
17740;DHT22;8990;33.226;-97.150;2023-04-03T05:19:55;17.20;99.90
17740;DHT22;8990;33.226;-97.150;2023-04-03T05:22:26;17.10;99.90
17740;DHT22;8990;33.226;-97.150;2023-04-03T05:25:00;17.10;99.90
17740;DHT22;8990;33.226;-97.150;2023-04-03T05:27:31;17.10;99.90
17740;DHT22;8990;33.226;-97.150;2023-04-03T05:30:02;17.10;99.90
17740;DHT22;8990;33.226;-97.150;2023-04-03T05:32:33;17.10;99.90
17740;DHT22;8990;33.226;-97.150;2023-04-03T05:35:12;17.20;99.90
17740;DHT22;8990;33.226;-97.150;2023-04-03T05:37:43;17.10;99.90
17740;DHT22;8990;33.226;-97.150;2023-04-03T05:40:14;17.10;99.90
17740;DHT22;8990;33.226;-97.150;2023-04-03T05:42:47;17.10;99.90
17740;DHT22;8990;33.226;-97.150;2023-04-03T05:45:18;17.10;99.90
17740;DHT22;8990;33.226;-97.150;2023-04-03T05:47:47;17.20;99.90
17740;DHT22;8990;33.226;-97.150;2023-04-03T05:50:17;17.20;99.90
17740;DHT22;8990;33.226;-97.150;2023-04-03T05:52:49;17.20;99.90
17740;DHT22;8990;33.226;-97.150;2023-04-03T05:55:20;17.10;99.90
17740;DHT22;8990;33.226;-97.150;2023-04-03T05:57:51;17.10;99.90
17740;DHT22;8990;33.226;-97.150;2023-04-03T06:00:21;17.20;99.90
17740;DHT22;8990;33.226;-97.150;2023-04-03T06:02:59;17.20;99.90
17740;DHT22;8990;33.226;-97.150;2023-04-03T06:05:28;17.20;99.90
17740;DHT22;8990;33.226;-97.150;2023-04-03T06:07:57;17.20;99.90
17740;DHT22;8990;33.226;-97.150;2023-04-03T06:10:27;17.20;99.90
17740;DHT22;8990;33.226;-97.150;2023-04-03T06:12:57;17.30;99.90
17740;DHT22;8990;33.226;-97.150;2023-04-03T06:15:26;17.30;99.90
17740;DHT22;8990;33.226;-97.150;2023-04-03T06:17:55;17.30;99.90
17740;DHT22;8990;33.226;-97.150;2023-04-03T06:20:25;17.30;99.90
17740;DHT22;8990;33.226;-97.150;2023-04-03T06:22:54;17.30;99.90
17740;DHT22;8990;33.226;-97.150;2023-04-03T06:25:23;17.30;99.90
17740;DHT22;8990;33.226;-97.150;2023-04-03T06:27:53;17.30;99.90
17740;DHT22;8990;33.226;-97.150;2023-04-03T06:30:24;17.40;99.90
17740;DHT22;8990;33.226;-97.150;2023-04-03T06:32:53;17.40;99.90
17740;DHT22;8990;33.226;-97.150;2023-04-03T06:35:22;17.30;99.90
17740;DHT22;8990;33.226;-97.150;2023-04-03T06:37:52;17.40;99.90
17740;DHT22;8990;33.226;-97.150;2023-04-03T06:40:24;17.30;99.90
17740;DHT22;8990;33.226;-97.150;2023-04-03T06:42:53;17.40;99.90
17740;DHT22;8990;33.226;-97.150;2023-04-03T06:45:24;17.40;99.90
17740;DHT22;8990;33.226;-97.150;2023-04-03T06:47:53;17.40;99.90
17740;DHT22;8990;33.226;-97.150;2023-04-03T06:50:22;17.40;99.90
17740;DHT22;8990;33.226;-97.150;2023-04-03T06:52:52;17.40;99.90
17740;DHT22;8990;33.226;-97.150;2023-04-03T06:55:21;17.40;99.90
17740;DHT22;8990;33.226;-97.150;2023-04-03T06:57:50;17.40;99.90
17740;DHT22;8990;33.226;-97.150;2023-04-03T07:00:19;17.50;99.90
17740;DHT22;8990;33.226;-97.150;2023-04-03T07:02:50;17.50;99.90
17740;DHT22;8990;33.226;-97.150;2023-04-03T07:05:19;17.50;99.90
17740;DHT22;8990;33.226;-97.150;2023-04-03T07:07:48;17.50;99.90
17740;DHT22;8990;33.226;-97.150;2023-04-03T07:10:18;17.50;99.90
17740;DHT22;8990;33.226;-97.150;2023-04-03T07:12:47;17.50;99.90
17740;DHT22;8990;33.226;-97.150;2023-04-03T07:15:16;17.50;99.90
17740;DHT22;8990;33.226;-97.150;2023-04-03T07:17:46;17.50;99.90
17740;DHT22;8990;33.226;-97.150;2023-04-03T07:20:17;17.50;99.90
17740;DHT22;8990;33.226;-97.150;2023-04-03T07:22:46;17.50;99.90
17740;DHT22;8990;33.226;-97.150;2023-04-03T07:25:15;17.50;99.90
17740;DHT22;8990;33.226;-97.150;2023-04-03T07:27:45;17.50;99.90
17740;DHT22;8990;33.226;-97.150;2023-04-03T07:30:14;17.50;99.90
17740;DHT22;8990;33.226;-97.150;2023-04-03T07:32:43;17.50;99.90
17740;DHT22;8990;33.226;-97.150;2023-04-03T07:35:12;17.60;99.90
17740;DHT22;8990;33.226;-97.150;2023-04-03T07:37:43;17.60;99.90
17740;DHT22;8990;33.226;-97.150;2023-04-03T07:40:13;17.60;99.90
17740;DHT22;8990;33.226;-97.150;2023-04-03T07:42:42;17.60;99.90
17740;DHT22;8990;33.226;-97.150;2023-04-03T07:45:11;17.60;99.90
17740;DHT22;8990;33.226;-97.150;2023-04-03T07:47:40;17.70;99.90
17740;DHT22;8990;33.226;-97.150;2023-04-03T07:50:09;17.60;99.90
17740;DHT22;8990;33.226;-97.150;2023-04-03T07:52:38;17.60;99.90
17740;DHT22;8990;33.226;-97.150;2023-04-03T07:55:09;17.60;99.90
17740;DHT22;8990;33.226;-97.150;2023-04-03T07:57:38;17.50;99.90
17740;DHT22;8990;33.226;-97.150;2023-04-03T08:00:09;17.60;99.90
17740;DHT22;8990;33.226;-97.150;2023-04-03T08:02:38;17.60;99.90
17740;DHT22;8990;33.226;-97.150;2023-04-03T08:05:08;17.60;99.90
17740;DHT22;8990;33.226;-97.150;2023-04-03T08:07:37;17.60;99.90
17740;DHT22;8990;33.226;-97.150;2023-04-03T08:10:09;17.60;99.90
17740;DHT22;8990;33.226;-97.150;2023-04-03T08:12:38;17.60;99.90
17740;DHT22;8990;33.226;-97.150;2023-04-03T08:15:08;17.70;99.90
17740;DHT22;8990;33.226;-97.150;2023-04-03T08:17:37;17.60;99.90
17740;DHT22;8990;33.226;-97.150;2023-04-03T08:20:09;17.60;99.90
17740;DHT22;8990;33.226;-97.150;2023-04-03T08:22:38;17.70;99.90
17740;DHT22;8990;33.226;-97.150;2023-04-03T08:25:09;17.70;99.90
17740;DHT22;8990;33.226;-97.150;2023-04-03T08:27:38;17.70;99.90
17740;DHT22;8990;33.226;-97.150;2023-04-03T08:30:08;17.70;99.90
17740;DHT22;8990;33.226;-97.150;2023-04-03T08:32:37;17.70;99.90
17740;DHT22;8990;33.226;-97.150;2023-04-03T08:35:09;17.70;99.90
17740;DHT22;8990;33.226;-97.150;2023-04-03T08:37:39;17.70;99.90
17740;DHT22;8990;33.226;-97.150;2023-04-03T08:40:14;17.70;99.90
17740;DHT22;8990;33.226;-97.150;2023-04-03T08:42:54;17.70;99.90
17740;DHT22;8990;33.226;-97.150;2023-04-03T08:45:32;17.70;99.90
17740;DHT22;8990;33.226;-97.150;2023-04-03T08:48:08;17.70;99.90
17740;DHT22;8990;33.226;-97.150;2023-04-03T08:50:41;17.70;99.90
17740;DHT22;8990;33.226;-97.150;2023-04-03T08:53:15;17.70;99.90
17740;DHT22;8990;33.226;-97.150;2023-04-03T08:55:47;17.70;99.90
17740;DHT22;8990;33.226;-97.150;2023-04-03T08:58:18;17.70;99.90
17740;DHT22;8990;33.226;-97.150;2023-04-03T09:00:49;17.70;99.90
17740;DHT22;8990;33.226;-97.150;2023-04-03T09:03:20;17.70;99.90
17740;DHT22;8990;33.226;-97.150;2023-04-03T09:05:53;17.80;99.90
17740;DHT22;8990;33.226;-97.150;2023-04-03T09:08:26;17.70;99.90
17740;DHT22;8990;33.226;-97.150;2023-04-03T09:11:09;17.70;99.90
17740;DHT22;8990;33.226;-97.150;2023-04-03T09:13:44;17.70;99.90
17740;DHT22;8990;33.226;-97.150;2023-04-03T09:16:28;17.70;99.90
17740;DHT22;8990;33.226;-97.150;2023-04-03T09:19:07;17.70;99.90
17740;DHT22;8990;33.226;-97.150;2023-04-03T09:21:41;17.70;99.90
17740;DHT22;8990;33.226;-97.150;2023-04-03T09:24:12;17.70;99.90
17740;DHT22;8990;33.226;-97.150;2023-04-03T09:26:48;17.70;99.90
17740;DHT22;8990;33.226;-97.150;2023-04-03T09:29:22;17.70;99.90
17740;DHT22;8990;33.226;-97.150;2023-04-03T09:31:56;17.70;99.90
17740;DHT22;8990;33.226;-97.150;2023-04-03T09:34:30;17.70;99.90
17740;DHT22;8990;33.226;-97.150;2023-04-03T09:37:01;17.70;99.90
17740;DHT22;8990;33.226;-97.150;2023-04-03T09:39:49;17.70;99.90
17740;DHT22;8990;33.226;-97.150;2023-04-03T09:42:22;17.70;99.90
17740;DHT22;8990;33.226;-97.150;2023-04-03T09:44:55;17.60;99.90
17740;DHT22;8990;33.226;-97.150;2023-04-03T09:47:26;17.60;99.90
17740;DHT22;8990;33.226;-97.150;2023-04-03T09:50:17;17.60;99.90
17740;DHT22;8990;33.226;-97.150;2023-04-03T09:52:49;17.60;99.90
17740;DHT22;8990;33.226;-97.150;2023-04-03T09:55:20;17.60;99.90
17740;DHT22;8990;33.226;-97.150;2023-04-03T09:57:57;17.60;99.90
17740;DHT22;8990;33.226;-97.150;2023-04-03T10:00:28;17.60;99.90
17740;DHT22;8990;33.226;-97.150;2023-04-03T10:02:59;17.60;99.90
17740;DHT22;8990;33.226;-97.150;2023-04-03T10:05:32;17.60;99.90
17740;DHT22;8990;33.226;-97.150;2023-04-03T10:08:11;17.60;99.90
17740;DHT22;8990;33.226;-97.150;2023-04-03T10:10:47;17.60;99.90
17740;DHT22;8990;33.226;-97.150;2023-04-03T10:13:19;17.60;99.90
17740;DHT22;8990;33.226;-97.150;2023-04-03T10:15:51;17.60;99.90
17740;DHT22;8990;33.226;-97.150;2023-04-03T10:18:32;17.60;99.90
17740;DHT22;8990;33.226;-97.150;2023-04-03T10:21:05;17.60;99.90
17740;DHT22;8990;33.226;-97.150;2023-04-03T10:23:42;17.60;99.90
17740;DHT22;8990;33.226;-97.150;2023-04-03T10:26:21;17.60;99.90
17740;DHT22;8990;33.226;-97.150;2023-04-03T10:28:59;17.60;99.90
17740;DHT22;8990;33.226;-97.150;2023-04-03T10:31:36;17.60;99.90
17740;DHT22;8990;33.226;-97.150;2023-04-03T10:34:16;17.60;99.90
17740;DHT22;8990;33.226;-97.150;2023-04-03T10:36:53;17.60;99.90
17740;DHT22;8990;33.226;-97.150;2023-04-03T10:39:32;17.60;99.90
17740;DHT22;8990;33.226;-97.150;2023-04-03T10:42:08;17.60;99.90
17740;DHT22;8990;33.226;-97.150;2023-04-03T10:45:00;17.60;99.90
17740;DHT22;8990;33.226;-97.150;2023-04-03T10:47:35;17.60;99.90
17740;DHT22;8990;33.226;-97.150;2023-04-03T10:50:22;17.60;99.90
17740;DHT22;8990;33.226;-97.150;2023-04-03T10:53:00;17.70;99.90
17740;DHT22;8990;33.226;-97.150;2023-04-03T10:55:36;17.60;99.90
17740;DHT22;8990;33.226;-97.150;2023-04-03T10:58:06;17.60;99.90
17740;DHT22;8990;33.226;-97.150;2023-04-03T11:00:43;17.60;99.90
17740;DHT22;8990;33.226;-97.150;2023-04-03T11:03:16;17.60;99.90
17740;DHT22;8990;33.226;-97.150;2023-04-03T11:05:52;17.60;99.90
17740;DHT22;8990;33.226;-97.150;2023-04-03T11:08:27;17.60;99.90
17740;DHT22;8990;33.226;-97.150;2023-04-03T11:11:00;17.60;99.90
17740;DHT22;8990;33.226;-97.150;2023-04-03T11:13:34;17.60;99.90
17740;DHT22;8990;33.226;-97.150;2023-04-03T11:16:06;17.70;99.90
17740;DHT22;8990;33.226;-97.150;2023-04-03T11:18:39;17.60;99.90
17740;DHT22;8990;33.226;-97.150;2023-04-03T11:21:12;17.60;99.90
17740;DHT22;8990;33.226;-97.150;2023-04-03T11:23:43;17.60;99.90
17740;DHT22;8990;33.226;-97.150;2023-04-03T11:26:14;17.60;99.90
17740;DHT22;8990;33.226;-97.150;2023-04-03T11:28:44;17.60;99.90
17740;DHT22;8990;33.226;-97.150;2023-04-03T11:31:28;17.70;99.90
17740;DHT22;8990;33.226;-97.150;2023-04-03T11:34:08;17.60;99.90
17740;DHT22;8990;33.226;-97.150;2023-04-03T11:36:41;17.60;99.90
17740;DHT22;8990;33.226;-97.150;2023-04-03T11:39:19;17.60;99.90
17740;DHT22;8990;33.226;-97.150;2023-04-03T11:41:51;17.60;99.90
17740;DHT22;8990;33.226;-97.150;2023-04-03T11:44:34;17.70;99.90
17740;DHT22;8990;33.226;-97.150;2023-04-03T11:47:08;17.70;99.90
17740;DHT22;8990;33.226;-97.150;2023-04-03T11:49:56;17.70;99.90
17740;DHT22;8990;33.226;-97.150;2023-04-03T11:52:58;17.70;99.90
17740;DHT22;8990;33.226;-97.150;2023-04-03T11:55:56;17.60;99.90
17740;DHT22;8990;33.226;-97.150;2023-04-03T11:58:27;17.60;99.90
17740;DHT22;8990;33.226;-97.150;2023-04-03T12:00:58;17.60;99.90
17740;DHT22;8990;33.226;-97.150;2023-04-03T12:07:11;17.70;99.90
17740;DHT22;8990;33.226;-97.150;2023-04-03T12:09:58;17.80;99.90
17740;DHT22;8990;33.226;-97.150;2023-04-03T12:12:39;17.70;99.90
17740;DHT22;8990;33.226;-97.150;2023-04-03T12:15:44;17.80;99.90
17740;DHT22;8990;33.226;-97.150;2023-04-03T12:18:56;17.70;99.90
17740;DHT22;8990;33.226;-97.150;2023-04-03T12:24:36;17.80;99.90
17740;DHT22;8990;33.226;-97.150;2023-04-03T12:27:24;17.80;99.90
17740;DHT22;8990;33.226;-97.150;2023-04-03T12:30:07;17.90;99.90
17740;DHT22;8990;33.226;-97.150;2023-04-03T12:32:57;17.90;99.90
17740;DHT22;8990;33.226;-97.150;2023-04-03T12:35:34;18.00;99.90
17740;DHT22;8990;33.226;-97.150;2023-04-03T12:38:30;18.00;99.90
17740;DHT22;8990;33.226;-97.150;2023-04-03T12:41:24;18.00;99.90
17740;DHT22;8990;33.226;-97.150;2023-04-03T12:44:01;18.00;99.90
17740;DHT22;8990;33.226;-97.150;2023-04-03T12:46:38;18.10;99.90
17740;DHT22;8990;33.226;-97.150;2023-04-03T12:49:26;18.20;99.90
17740;DHT22;8990;33.226;-97.150;2023-04-03T12:51:59;18.20;99.90
17740;DHT22;8990;33.226;-97.150;2023-04-03T12:54:32;18.30;99.90
17740;DHT22;8990;33.226;-97.150;2023-04-03T12:57:17;18.30;99.90
17740;DHT22;8990;33.226;-97.150;2023-04-03T12:59:46;18.40;99.90
17740;DHT22;8990;33.226;-97.150;2023-04-03T13:02:22;18.50;99.90
17740;DHT22;8990;33.226;-97.150;2023-04-03T13:04:53;18.60;99.90
17740;DHT22;8990;33.226;-97.150;2023-04-03T13:07:24;18.60;99.90
17740;DHT22;8990;33.226;-97.150;2023-04-03T13:10:00;18.70;99.90
17740;DHT22;8990;33.226;-97.150;2023-04-03T13:12:31;18.70;99.90
17740;DHT22;8990;33.226;-97.150;2023-04-03T13:15:02;18.80;99.90
17740;DHT22;8990;33.226;-97.150;2023-04-03T13:17:32;18.90;99.90
17740;DHT22;8990;33.226;-97.150;2023-04-03T13:20:15;18.90;99.90
17740;DHT22;8990;33.226;-97.150;2023-04-03T13:22:50;18.90;99.90
17740;DHT22;8990;33.226;-97.150;2023-04-03T13:25:21;19.00;99.90
17740;DHT22;8990;33.226;-97.150;2023-04-03T13:27:53;19.10;99.90
17740;DHT22;8990;33.226;-97.150;2023-04-03T13:30:26;19.10;99.90
17740;DHT22;8990;33.226;-97.150;2023-04-03T13:32:57;19.20;99.90
17740;DHT22;8990;33.226;-97.150;2023-04-03T13:35:33;19.30;99.90
17740;DHT22;8990;33.226;-97.150;2023-04-03T13:38:07;19.40;99.90
17740;DHT22;8990;33.226;-97.150;2023-04-03T13:40:51;19.40;99.90
17740;DHT22;8990;33.226;-97.150;2023-04-03T13:43:25;19.60;99.90
17740;DHT22;8990;33.226;-97.150;2023-04-03T13:45:59;19.60;99.90
17740;DHT22;8990;33.226;-97.150;2023-04-03T13:48:41;19.80;99.90
17740;DHT22;8990;33.226;-97.150;2023-04-03T13:51:19;19.90;99.90
17740;DHT22;8990;33.226;-97.150;2023-04-03T13:53:51;20.00;99.90
17740;DHT22;8990;33.226;-97.150;2023-04-03T13:56:25;20.10;99.90
17740;DHT22;8990;33.226;-97.150;2023-04-03T13:59:00;20.30;99.90
17740;DHT22;8990;33.226;-97.150;2023-04-03T14:01:42;20.40;99.90
17740;DHT22;8990;33.226;-97.150;2023-04-03T14:04:17;20.60;99.90
17740;DHT22;8990;33.226;-97.150;2023-04-03T14:06:47;20.70;99.90
17740;DHT22;8990;33.226;-97.150;2023-04-03T14:09:17;20.90;99.90
17740;DHT22;8990;33.226;-97.150;2023-04-03T14:11:47;20.90;99.90
17740;DHT22;8990;33.226;-97.150;2023-04-03T14:14:21;21.00;99.90
17740;DHT22;8990;33.226;-97.150;2023-04-03T14:16:53;21.10;99.90
17740;DHT22;8990;33.226;-97.150;2023-04-03T14:21:54;21.40;99.90
17740;DHT22;8990;33.226;-97.150;2023-04-03T14:24:24;21.50;99.90
17740;DHT22;8990;33.226;-97.150;2023-04-03T14:26:55;21.60;99.90
17740;DHT22;8990;33.226;-97.150;2023-04-03T14:29:26;21.70;99.90
17740;DHT22;8990;33.226;-97.150;2023-04-03T14:31:55;21.80;99.90
17740;DHT22;8990;33.226;-97.150;2023-04-03T14:34:25;21.90;99.90
17740;DHT22;8990;33.226;-97.150;2023-04-03T14:36:54;22.10;99.90
17740;DHT22;8990;33.226;-97.150;2023-04-03T14:39:23;22.10;99.90
17740;DHT22;8990;33.226;-97.150;2023-04-03T14:41:52;22.20;99.90
17740;DHT22;8990;33.226;-97.150;2023-04-03T14:44:21;22.30;99.90
17740;DHT22;8990;33.226;-97.150;2023-04-03T14:46:52;22.50;99.90
17740;DHT22;8990;33.226;-97.150;2023-04-03T14:49:23;22.60;99.90
17740;DHT22;8990;33.226;-97.150;2023-04-03T14:51:53;22.60;99.90
17740;DHT22;8990;33.226;-97.150;2023-04-03T14:54:23;22.80;99.90
17740;DHT22;8990;33.226;-97.150;2023-04-03T14:56:55;22.90;99.90
17740;DHT22;8990;33.226;-97.150;2023-04-03T14:59:25;23.00;99.90
17740;DHT22;8990;33.226;-97.150;2023-04-03T15:01:56;23.10;99.90
17740;DHT22;8990;33.226;-97.150;2023-04-03T15:04:25;23.30;99.90
17740;DHT22;8990;33.226;-97.150;2023-04-03T15:06:55;23.40;99.90
17740;DHT22;8990;33.226;-97.150;2023-04-03T15:09:25;23.50;99.90
17740;DHT22;8990;33.226;-97.150;2023-04-03T15:11:56;23.60;99.90
17740;DHT22;8990;33.226;-97.150;2023-04-03T15:14:24;23.70;99.90
17740;DHT22;8990;33.226;-97.150;2023-04-03T15:16:53;23.80;99.90
17740;DHT22;8990;33.226;-97.150;2023-04-03T15:19:25;23.90;99.90
17740;DHT22;8990;33.226;-97.150;2023-04-03T15:21:54;24.10;99.90
17740;DHT22;8990;33.226;-97.150;2023-04-03T15:24:23;24.20;99.90
17740;DHT22;8990;33.226;-97.150;2023-04-03T15:26:52;24.40;99.90
17740;DHT22;8990;33.226;-97.150;2023-04-03T15:29:21;24.40;99.90
17740;DHT22;8990;33.226;-97.150;2023-04-03T15:31:50;24.60;99.90
17740;DHT22;8990;33.226;-97.150;2023-04-03T15:34:21;24.70;99.90
17740;DHT22;8990;33.226;-97.150;2023-04-03T15:36:52;24.90;99.90
17740;DHT22;8990;33.226;-97.150;2023-04-03T15:39:20;24.90;99.90
17740;DHT22;8990;33.226;-97.150;2023-04-03T15:41:50;25.10;99.90
17740;DHT22;8990;33.226;-97.150;2023-04-03T15:44:21;25.10;99.90
17740;DHT22;8990;33.226;-97.150;2023-04-03T15:46:50;25.30;99.90
17740;DHT22;8990;33.226;-97.150;2023-04-03T15:49:19;25.20;99.90
17740;DHT22;8990;33.226;-97.150;2023-04-03T15:51:51;25.30;99.90
17740;DHT22;8990;33.226;-97.150;2023-04-03T15:54:20;25.40;99.90
17740;DHT22;8990;33.226;-97.150;2023-04-03T15:56:50;25.50;99.90